Haven, Kansas
Current Conditions -  °F | °C
As of 10:52 PM on Monday 22 Dec 2014 (Local Time) from KHUT Reporting Station
Clear Clear  
Wind Chill: 31°   Ceiling: Unl
Heat Index: 37°   Visibility: 10mi
Dew Point: 28°   Wind: 8mph
Humidity: 70%   Direction: 260°W
Pressure: 29.65"   Gusts: NA
Location:  37.9°N, 97.78°W
Report Text: KHUT 230452Z 26007KT 10SM CLR 03/M02 A2965 RMK AO2 SLP038 T00281022
Loading
Personal Weather Stations






























Interactive Weather Map New forecast layout! Learn more

10-Day Weather Forecast

Advertisements
Track Severe Weather on mobile